createdAt,value
2022-12-15T13:46:16.337Z,9.91
2022-12-15T13:46:26.860Z,10.14
2022-12-15T13:46:37.810Z,10.18
2022-12-15T13:46:49.817Z,10.21
2022-12-15T13:47:00.849Z,10.22
2022-12-15T13:47:11.858Z,10.22
2022-12-15T13:47:22.869Z,10.25
2022-12-15T13:47:33.892Z,10.24
2022-12-15T13:47:44.789Z,10.25
2022-12-15T13:47:55.897Z,10.26
2022-12-15T13:48:06.791Z,10.27
2022-12-15T13:48:17.922Z,10.28
2022-12-15T13:48:28.829Z,10.29
2022-12-15T13:48:39.890Z,10.27
2022-12-15T13:48:51.901Z,10.28
2022-12-15T13:49:02.938Z,10.29
2022-12-15T13:49:14.895Z,10.29
2022-12-15T13:49:26.845Z,10.29
2022-12-15T13:49:37.851Z,10.29
2022-12-15T13:49:51.975Z,10.31
2022-12-15T13:50:02.258Z,10.30
2022-12-15T13:50:10.810Z,10.31
2022-12-15T13:50:21.822Z,10.30
2022-12-15T13:50:32.827Z,10.30
2022-12-15T13:50:44.836Z,10.31
2022-12-15T13:50:56.867Z,10.29
2022-12-15T13:51:06.873Z,10.30
2022-12-15T13:51:18.904Z,10.30
2022-12-15T13:51:30.837Z,10.30
2022-12-15T13:51:41.841Z,10.31
2022-12-15T13:51:53.848Z,10.31
2022-12-15T13:52:05.858Z,10.31
2022-12-15T13:52:16.863Z,10.31
2022-12-15T13:53:07.989Z,10.32
2022-12-15T13:53:17.887Z,10.31
2022-12-15T13:53:20.901Z,10.29
2022-12-15T13:53:24.874Z,10.28
2022-12-15T13:53:30.620Z,10.30
2022-12-15T13:53:36.486Z,10.29
2022-12-15T13:53:49.729Z,10.29
2022-12-15T13:53:58.870Z,10.27
2022-12-15T13:54:09.888Z,10.28
2022-12-15T13:54:20.793Z,10.29
2022-12-15T13:54:31.811Z,10.29
2022-12-15T13:54:43.821Z,10.29
2022-12-15T13:54:55.818Z,10.28
2022-12-15T13:55:07.823Z,10.28
2022-12-15T13:55:24.071Z,10.29
2022-12-15T13:55:30.851Z,10.28
2022-12-15T13:55:41.859Z,10.29
2022-12-15T13:55:53.861Z,10.29
2022-12-15T13:56:04.866Z,10.29
2022-12-15T13:56:16.876Z,10.29
2022-12-15T13:56:27.875Z,10.29
2022-12-15T13:56:39.887Z,10.27
2022-12-15T13:56:51.886Z,10.28
2022-12-15T13:57:02.794Z,10.28
2022-12-15T13:57:13.798Z,10.27
2022-12-15T13:57:24.813Z,10.27
2022-12-15T13:57:35.866Z,10.28
2022-12-15T13:57:46.872Z,10.27
2022-12-15T13:57:58.830Z,10.29
2022-12-15T13:58:09.841Z,10.28
2022-12-15T13:58:20.852Z,10.28
2022-12-15T13:58:33.721Z,10.28
2022-12-15T13:58:44.800Z,10.28
2022-12-15T13:58:55.875Z,10.29
2022-12-15T13:59:07.886Z,10.29
2022-12-15T13:59:18.797Z,10.28
2022-12-15T13:59:29.805Z,10.30
2022-12-15T13:59:40.821Z,10.29
2022-12-15T13:59:51.831Z,10.30
2022-12-15T14:00:02.842Z,10.30
2022-12-15T14:00:13.846Z,10.29
2022-12-15T14:00:25.851Z,10.29
2022-12-15T14:00:36.864Z,10.29
2022-12-15T14:00:47.869Z,10.30
2022-12-15T14:00:59.855Z,10.29
2022-12-15T14:01:10.867Z,10.29
2022-12-15T14:01:25.925Z,10.29
2022-12-15T14:01:34.102Z,10.29
2022-12-15T14:01:45.905Z,10.30
2022-12-15T14:01:58.836Z,10.29
2022-12-15T14:02:08.963Z,10.28
2022-12-15T14:02:20.816Z,10.29
2022-12-15T14:02:31.831Z,10.28
2022-12-15T14:02:42.889Z,10.29
2022-12-15T14:02:54.936Z,10.29
2022-12-15T14:03:05.915Z,10.27
2022-12-15T14:03:17.974Z,10.29
2022-12-15T14:03:30.419Z,10.28
2022-12-15T14:03:41.854Z,10.28
2022-12-15T14:03:52.860Z,10.28
2022-12-15T14:04:04.868Z,10.28
2022-12-15T14:04:16.874Z,10.27
2022-12-15T14:04:28.873Z,10.28
2022-12-15T14:04:40.885Z,10.28
2022-12-15T14:04:51.795Z,10.27
2022-12-15T14:05:02.803Z,10.29
2022-12-15T14:05:13.813Z,10.28
2022-12-15T14:05:25.822Z,10.28
2022-12-15T14:05:37.821Z,10.28
2022-12-15T14:05:49.827Z,10.28
2022-12-15T14:06:01.803Z,10.29
2022-12-15T14:06:12.814Z,10.27
2022-12-15T14:06:24.826Z,10.28
2022-12-15T14:06:35.830Z,10.27
2022-12-15T14:06:47.836Z,10.28
2022-12-15T14:06:58.995Z,10.27
2022-12-15T14:07:10.809Z,10.28
2022-12-15T14:07:22.809Z,10.27
2022-12-15T14:07:33.805Z,10.28
2022-12-15T14:07:49.538Z,10.28
2022-12-15T14:07:56.852Z,10.27
2022-12-15T14:08:06.861Z,10.27
2022-12-15T14:08:18.872Z,10.26
2022-12-15T14:08:30.876Z,10.26
2022-12-15T14:08:41.881Z,10.25
2022-12-15T14:08:53.797Z,10.27
2022-12-15T14:09:04.807Z,10.27
2022-12-15T14:09:15.821Z,10.26
2022-12-15T14:09:26.820Z,10.26
2022-12-15T14:09:37.835Z,10.27
2022-12-15T14:09:49.844Z,10.27
2022-12-15T14:10:01.842Z,10.26
2022-12-15T14:10:12.854Z,10.27
2022-12-15T14:10:23.859Z,10.26
2022-12-15T14:10:34.870Z,10.27
2022-12-15T14:10:45.884Z,10.28
2022-12-15T14:10:57.854Z,10.26
2022-12-15T14:11:37.206Z,10.27
2022-12-15T14:11:50.742Z,10.26
2022-12-15T14:11:51.826Z,10.27
2022-12-15T14:11:53.261Z,10.28
2022-12-15T14:11:54.870Z,10.26
2022-12-15T14:12:05.874Z,10.27
2022-12-15T14:12:16.886Z,10.26
2022-12-15T14:12:28.803Z,10.27
2022-12-15T14:12:39.815Z,10.27
2022-12-15T14:12:50.874Z,10.26
2022-12-15T14:13:01.886Z,10.28
2022-12-15T14:13:16.071Z,10.25
2022-12-15T14:13:24.851Z,10.25
2022-12-15T14:13:36.532Z,10.26
2022-12-15T14:13:52.299Z,10.26
2022-12-15T14:13:59.834Z,10.26
2022-12-15T14:14:09.837Z,10.27
2022-12-15T14:14:20.851Z,10.26
2022-12-15T14:14:31.863Z,10.26
2022-12-15T14:14:42.869Z,10.26
2022-12-15T14:14:53.789Z,10.25
2022-12-15T14:15:04.881Z,10.27
2022-12-15T14:15:16.791Z,10.27
2022-12-15T14:15:27.802Z,10.27
2022-12-15T14:15:38.806Z,10.26
2022-12-15T14:15:51.052Z,10.26
2022-12-15T14:16:01.883Z,10.26
2022-12-15T14:16:13.867Z,10.27
2022-12-15T14:16:25.008Z,10.27
2022-12-15T14:16:36.893Z,10.26
2022-12-15T14:16:47.861Z,10.26
2022-12-15T14:16:59.852Z,10.26
2022-12-15T14:17:10.792Z,10.27
2022-12-15T14:17:21.793Z,10.26
2022-12-15T14:17:32.807Z,10.25
2022-12-15T14:17:43.820Z,10.26
2022-12-15T14:17:55.829Z,10.25
2022-12-15T14:18:06.832Z,10.27
2022-12-15T14:18:17.848Z,10.27
2022-12-15T14:18:29.858Z,10.26
2022-12-15T14:18:40.883Z,10.26
2022-12-15T14:18:51.794Z,10.27
2022-12-15T14:19:02.806Z,10.25
2022-12-15T14:19:13.818Z,10.25
2022-12-15T14:19:24.835Z,10.24
2022-12-15T14:19:38.408Z,10.24
2022-12-15T14:19:46.863Z,10.25
2022-12-15T14:19:58.814Z,10.25
2022-12-15T14:20:09.912Z,10.25
2022-12-15T14:20:21.856Z,10.25
2022-12-15T14:20:33.868Z,10.26
2022-12-15T14:20:44.884Z,10.24
2022-12-15T14:20:56.888Z,10.26
2022-12-15T14:21:07.796Z,10.26
2022-12-15T14:21:18.843Z,10.26
2022-12-15T14:21:30.891Z,10.26
2022-12-15T14:21:41.788Z,10.27
2022-12-15T14:21:52.864Z,10.26
2022-12-15T14:22:04.827Z,10.26
2022-12-15T14:22:21.661Z,10.26
2022-12-15T14:22:29.992Z,10.25
2022-12-15T14:22:39.860Z,10.26
2022-12-15T14:22:50.878Z,10.25
2022-12-15T14:23:01.884Z,10.24
2022-12-15T14:23:13.807Z,10.26
2022-12-15T14:23:25.814Z,10.25
2022-12-15T14:23:37.821Z,10.25
2022-12-15T14:24:19.657Z,10.27
2022-12-15T14:24:36.975Z,10.25
2022-12-15T14:24:37.513Z,10.26
2022-12-15T14:24:40.806Z,10.26
2022-12-15T14:24:46.833Z,10.26
2022-12-15T14:24:57.812Z,10.25
2022-12-15T14:25:09.815Z,10.25
2022-12-15T14:25:21.824Z,10.26
2022-12-15T14:25:32.827Z,10.26
2022-12-15T14:25:44.836Z,10.26
2022-12-15T14:25:55.850Z,10.26
2022-12-15T14:26:07.854Z,10.25
2022-12-15T14:26:19.806Z,10.25
2022-12-15T14:26:30.824Z,10.26
2022-12-15T14:26:41.825Z,10.26
2022-12-15T14:26:53.838Z,10.25
2022-12-15T14:27:04.873Z,10.26
2022-12-15T14:27:15.880Z,10.25
2022-12-15T14:27:27.823Z,10.26
2022-12-15T14:27:38.843Z,10.25
2022-12-15T14:27:50.937Z,10.26
2022-12-15T14:28:01.878Z,10.26
2022-12-15T14:28:12.876Z,10.26
2022-12-15T14:28:23.786Z,10.25
2022-12-15T14:28:34.792Z,10.27
2022-12-15T14:28:45.798Z,10.26
2022-12-15T14:28:56.818Z,10.25
2022-12-15T14:29:08.820Z,10.25
2022-12-15T14:29:19.827Z,10.24
2022-12-15T14:29:31.839Z,10.25
2022-12-15T14:29:42.849Z,10.26
2022-12-15T14:29:57.742Z,10.25
2022-12-15T14:30:05.888Z,10.26
2022-12-15T14:30:16.795Z,10.25
2022-12-15T14:30:28.807Z,10.26
2022-12-15T14:30:40.816Z,10.25
2022-12-15T14:30:52.810Z,10.25
2022-12-15T14:31:03.844Z,10.26
2022-12-15T14:31:15.929Z,10.25
2022-12-15T14:31:26.912Z,10.26
2022-12-15T14:31:38.924Z,10.25
2022-12-15T14:31:49.873Z,10.26
2022-12-15T14:32:01.969Z,10.25
2022-12-15T14:32:13.873Z,10.26
2022-12-15T14:32:25.820Z,10.26
2022-12-15T14:32:37.822Z,10.25
2022-12-15T14:32:49.815Z,10.25
2022-12-15T14:33:01.815Z,10.26
2022-12-15T14:33:13.820Z,10.26
2022-12-15T14:33:29.649Z,10.26
2022-12-15T14:33:38.737Z,10.26
2022-12-15T14:33:50.615Z,10.25
2022-12-15T14:33:59.865Z,10.26
2022-12-15T14:34:10.875Z,10.25
2022-12-15T14:34:21.791Z,10.25
2022-12-15T14:34:32.809Z,10.25
2022-12-15T14:34:44.824Z,10.26
2022-12-15T14:34:56.856Z,10.26
2022-12-15T14:35:07.863Z,10.26
2022-12-15T14:35:19.870Z,10.26
2022-12-15T14:35:30.921Z,10.25
2022-12-15T14:35:42.817Z,10.26
2022-12-15T14:35:53.829Z,10.26
2022-12-15T14:36:05.835Z,10.26
2022-12-15T14:36:17.846Z,10.25
2022-12-15T14:36:28.876Z,10.25
2022-12-15T14:36:40.814Z,10.26
2022-12-15T14:38:02.736Z,9.97
2022-12-15T14:38:13.744Z,10.19
2022-12-15T14:38:25.753Z,10.22
2022-12-15T14:38:37.758Z,10.23
2022-12-15T14:38:48.759Z,10.23
2022-12-15T14:38:59.760Z,10.24
2022-12-15T14:39:10.773Z,10.22
2022-12-15T14:39:22.697Z,10.24
2022-12-15T14:39:33.702Z,10.23
2022-12-15T14:39:45.708Z,10.24
2022-12-15T14:39:56.747Z,10.23
2022-12-15T14:40:08.855Z,10.22
2022-12-15T14:40:26.564Z,10.22
2022-12-15T14:40:32.727Z,10.22
2022-12-15T14:40:43.739Z,10.21
2022-12-15T14:40:55.750Z,10.22
2022-12-15T14:41:06.755Z,10.23
2022-12-15T14:41:18.694Z,10.22
2022-12-15T14:41:29.757Z,10.20
2022-12-15T14:41:40.680Z,10.20
2022-12-15T14:41:51.680Z,10.20
2022-12-15T14:42:02.711Z,10.20
2022-12-15T14:42:13.730Z,10.21
2022-12-15T14:42:25.741Z,10.21
2022-12-15T14:42:37.750Z,10.20
2022-12-15T14:42:50.583Z,10.20
2022-12-15T14:43:00.718Z,10.21
2022-12-15T14:43:11.725Z,10.21
2022-12-15T14:43:22.729Z,10.20
2022-12-15T14:43:34.246Z,10.20
2022-12-15T14:43:45.720Z,10.19
2022-12-15T14:44:31.297Z,10.20
2022-12-15T14:44:31.906Z,10.20
2022-12-15T14:44:37.153Z,10.20
2022-12-15T14:44:38.372Z,10.19
2022-12-15T14:44:46.418Z,10.18
2022-12-15T14:44:57.856Z,10.19
2022-12-15T14:45:04.739Z,10.18
2022-12-15T14:45:16.746Z,10.18
2022-12-15T14:45:28.755Z,10.17
2022-12-15T14:45:40.878Z,10.17
2022-12-15T14:45:52.776Z,10.16
2022-12-15T14:46:04.883Z,10.17
2022-12-15T14:46:16.697Z,10.18
2022-12-15T14:46:27.804Z,10.17
2022-12-15T14:46:39.687Z,10.18
2022-12-15T14:46:51.132Z,10.17
2022-12-15T14:47:02.776Z,10.18
2022-12-15T14:47:14.694Z,10.19
2022-12-15T14:47:25.742Z,10.18
2022-12-15T14:47:36.758Z,10.19
2022-12-15T14:48:05.774Z,10.18
2022-12-15T14:48:38.929Z,10.18
2022-12-15T14:48:39.884Z,10.17
2022-12-15T14:48:44.763Z,10.18
2022-12-15T14:48:55.157Z,10.18
2022-12-15T14:49:06.725Z,10.18
2022-12-15T14:49:18.732Z,10.17
2022-12-15T14:49:30.740Z,10.16
2022-12-15T14:49:42.743Z,10.16
2022-12-15T14:49:54.750Z,10.15
2022-12-15T14:50:05.672Z,10.15
2022-12-15T14:50:23.224Z,10.16
2022-12-15T14:50:28.713Z,10.15
2022-12-15T14:50:38.743Z,10.14
2022-12-15T14:50:49.770Z,10.14
2022-12-15T14:51:01.695Z,10.14
2022-12-15T14:51:13.707Z,10.14
2022-12-15T14:51:24.709Z,10.15
2022-12-15T14:51:35.726Z,10.13
2022-12-15T14:51:47.734Z,10.14
2022-12-15T14:51:59.751Z,10.13
2022-12-15T14:52:10.744Z,10.14
2022-12-15T14:52:22.759Z,10.13
2022-12-15T14:52:34.752Z,10.14
2022-12-15T14:52:46.679Z,10.14
2022-12-15T14:52:57.695Z,10.13
2022-12-15T14:53:09.696Z,10.12
2022-12-15T14:53:20.725Z,10.13
2022-12-15T14:53:31.738Z,10.12
2022-12-15T14:53:42.742Z,10.12
2022-12-15T14:53:54.750Z,10.12
2022-12-15T14:54:05.761Z,10.13
2022-12-15T14:54:16.767Z,10.13
2022-12-15T14:54:28.693Z,10.12
2022-12-15T14:54:39.696Z,10.11
2022-12-15T14:54:51.706Z,10.12
2022-12-15T14:55:02.716Z,10.11
2022-12-15T14:55:13.741Z,10.11
2022-12-15T14:55:25.751Z,10.11
2022-12-15T14:55:37.745Z,10.13
2022-12-15T14:55:48.760Z,10.12
2022-12-15T14:55:59.676Z,10.12
2022-12-15T14:56:10.680Z,10.11
2022-12-15T14:56:29.435Z,10.10
2022-12-15T14:56:34.721Z,10.11
2022-12-15T14:56:45.740Z,10.10
2022-12-15T14:56:56.757Z,10.10
2022-12-15T14:57:08.736Z,10.11
2022-12-15T14:57:19.748Z,10.11
2022-12-15T14:57:30.765Z,10.11
2022-12-15T14:57:42.676Z,10.10
2022-12-15T14:57:53.708Z,10.09
2022-12-15T14:58:04.718Z,10.08
2022-12-15T14:58:15.735Z,10.08
2022-12-15T14:58:27.884Z,10.09
2022-12-15T14:58:39.702Z,10.09
2022-12-15T14:58:51.713Z,10.08
2022-12-15T14:59:02.730Z,10.09
2022-12-15T14:59:13.743Z,10.08
2022-12-15T14:59:25.754Z,10.08
2022-12-15T14:59:37.765Z,10.10
2022-12-15T14:59:49.683Z,10.08
2022-12-15T15:00:00.710Z,10.09
2022-12-15T15:00:12.722Z,10.08
2022-12-15T15:00:24.686Z,10.08
2022-12-15T15:00:36.701Z,10.08
2022-12-15T15:00:48.709Z,10.07
2022-12-15T15:01:01.427Z,10.10
2022-12-15T15:02:28.927Z,9.82
2022-12-15T15:02:39.842Z,10.05
2022-12-15T15:02:50.780Z,10.06
2022-12-15T15:03:02.771Z,10.08
2022-12-15T15:03:05.713Z,10.31
2022-12-15T15:03:06.091Z,10.17
2022-12-15T15:03:14.538Z,10.17
2022-12-15T15:03:15.913Z,10.26
2022-12-15T15:03:18.234Z,10.08
2022-12-15T15:03:26.001Z,10.08
2022-12-15T15:03:36.740Z,10.08
2022-12-15T15:03:47.746Z,10.09
2022-12-15T15:03:59.720Z,10.10
2022-12-15T15:04:10.743Z,10.10
2022-12-15T15:04:21.745Z,10.09
2022-12-15T15:04:32.792Z,10.08
2022-12-15T15:04:44.707Z,10.10
2022-12-15T15:04:56.705Z,10.10
2022-12-15T15:05:07.770Z,10.11
2022-12-15T15:05:18.675Z,10.09
2022-12-15T15:05:29.745Z,10.09
2022-12-15T15:05:40.794Z,10.10
2022-12-15T15:05:52.831Z,10.09
2022-12-15T15:06:03.835Z,10.08
2022-12-15T15:06:15.693Z,10.10
2022-12-15T15:06:26.707Z,10.09
2022-12-15T15:06:37.708Z,10.10
2022-12-15T15:06:52.141Z,10.10
2022-12-15T15:07:00.705Z,10.09
2022-12-15T15:07:11.717Z,10.09
2022-12-15T15:07:22.718Z,10.10
2022-12-15T15:07:34.721Z,10.08
2022-12-15T15:07:46.720Z,10.08
2022-12-15T15:07:57.727Z,10.08
2022-12-15T15:08:08.742Z,10.08
2022-12-15T15:08:20.748Z,10.08
2022-12-15T15:08:33.232Z,10.08
2022-12-15T15:08:44.698Z,10.08
2022-12-15T15:08:56.718Z,10.07
2022-12-15T15:09:08.715Z,10.09
2022-12-15T15:09:19.724Z,10.10
2022-12-15T15:09:30.728Z,10.09
2022-12-15T15:09:41.738Z,10.09
2022-12-15T15:09:53.749Z,10.09
2022-12-15T15:10:05.748Z,10.09
2022-12-15T15:10:16.759Z,10.08
2022-12-15T15:10:27.668Z,10.08
2022-12-15T15:10:38.771Z,10.08
2022-12-15T15:10:50.714Z,10.08
2022-12-15T15:11:01.726Z,10.08
2022-12-15T15:11:13.747Z,10.09
2022-12-15T15:11:24.782Z,10.08
2022-12-15T15:11:35.675Z,10.09
2022-12-15T15:11:46.669Z,10.07
2022-12-15T15:11:57.670Z,10.06
2022-12-15T15:12:08.688Z,10.08
2022-12-15T15:12:20.699Z,10.08
2022-12-15T15:12:31.711Z,10.08
2022-12-15T15:12:42.715Z,10.08
2022-12-15T15:12:53.725Z,10.09
2022-12-15T15:13:04.728Z,10.09
2022-12-15T15:13:16.735Z,10.08
2022-12-15T15:13:28.734Z,10.07
2022-12-15T15:13:40.740Z,10.08
2022-12-15T15:13:51.665Z,10.09
2022-12-15T15:14:02.700Z,10.09
2022-12-15T15:14:13.712Z,10.08
2022-12-15T15:14:24.718Z,10.10
2022-12-15T15:14:36.727Z,10.08
2022-12-15T15:14:48.732Z,10.08
2022-12-15T15:15:00.733Z,10.09
2022-12-15T15:15:12.743Z,10.07
2022-12-15T15:15:24.745Z,10.08
2022-12-15T15:15:36.765Z,10.07
2022-12-15T15:15:47.670Z,10.08
2022-12-15T15:15:59.680Z,10.08
2022-12-15T15:16:11.746Z,10.07
2022-12-15T15:16:22.823Z,10.08
2022-12-15T15:16:34.749Z,10.09
2022-12-15T15:16:45.823Z,10.07
2022-12-15T15:16:56.930Z,10.08
2022-12-15T15:17:08.810Z,10.07
2022-12-15T15:17:20.744Z,10.08
2022-12-15T15:17:32.757Z,10.08
2022-12-15T15:17:44.752Z,10.07
2022-12-15T15:17:56.757Z,10.08
2022-12-15T15:18:08.685Z,10.08
2022-12-15T15:18:20.713Z,10.09
2022-12-15T15:18:32.159Z,10.08
2022-12-15T15:18:43.731Z,10.08
2022-12-15T15:18:54.735Z,10.07
2022-12-15T15:19:05.737Z,10.07
2022-12-15T15:19:16.748Z,10.07
2022-12-15T15:19:28.759Z,10.07
2022-12-15T15:19:40.757Z,10.07
2022-12-15T15:19:52.761Z,10.07
2022-12-15T15:20:04.674Z,10.06
2022-12-15T15:20:16.690Z,10.08
2022-12-15T15:20:27.685Z,10.08
2022-12-15T15:20:38.735Z,10.08
2022-12-15T15:20:50.695Z,10.07
2022-12-15T15:21:02.700Z,10.08
2022-12-15T15:21:14.709Z,10.06
2022-12-15T15:21:26.707Z,10.06
2022-12-15T15:21:37.727Z,10.07
2022-12-15T15:21:49.703Z,10.07
2022-12-15T15:22:00.746Z,10.07
2022-12-15T15:22:11.747Z,10.07
2022-12-15T15:22:22.758Z,10.04
2022-12-15T15:22:33.667Z,10.07
2022-12-15T15:22:44.676Z,10.07
2022-12-15T15:22:55.721Z,10.06
2022-12-15T15:23:07.687Z,10.06
2022-12-15T15:23:18.697Z,10.05
2022-12-15T15:23:30.702Z,10.05
2022-12-15T15:23:42.703Z,10.05
2022-12-15T15:23:54.711Z,10.04
2022-12-15T15:24:05.721Z,10.04
2022-12-15T15:24:16.853Z,10.06
2022-12-15T15:24:28.872Z,10.05
2022-12-15T15:24:40.785Z,10.05
2022-12-15T15:24:51.845Z,10.04
2022-12-15T15:25:03.852Z,10.05
2022-12-15T15:25:15.865Z,10.05
2022-12-15T15:25:27.882Z,10.05
2022-12-15T15:25:40.545Z,10.04
2022-12-15T15:25:50.704Z,10.05
2022-12-15T15:26:02.712Z,10.04
2022-12-15T15:26:13.721Z,10.02
2022-12-15T15:26:25.737Z,10.03
2022-12-15T15:26:36.773Z,10.03
2022-12-15T15:26:48.860Z,10.03
2022-12-15T15:26:59.715Z,10.01
2022-12-15T15:27:10.798Z,10.03
2022-12-15T15:27:22.790Z,10.02
2022-12-15T15:27:34.727Z,10.02
2022-12-15T15:27:46.749Z,10.01
2022-12-15T15:27:57.766Z,10.03
2022-12-15T15:28:09.686Z,10.03
2022-12-15T15:28:20.696Z,10.04
2022-12-15T15:28:33.018Z,10.03
2022-12-15T15:28:44.687Z,10.03
2022-12-15T15:28:56.690Z,10.03
2022-12-15T15:29:07.691Z,10.03
2022-12-15T15:29:18.687Z,10.03
2022-12-15T15:29:29.717Z,10.03
2022-12-15T15:29:40.724Z,10.03
2022-12-15T15:29:52.728Z,10.03
2022-12-15T15:30:04.725Z,10.03
2022-12-15T15:30:15.768Z,10.04
2022-12-15T15:30:27.701Z,10.03
2022-12-15T15:30:38.746Z,10.04
2022-12-15T15:30:49.738Z,10.04
2022-12-15T15:31:01.730Z,10.04
2022-12-15T15:31:11.883Z,10.04
2022-12-15T15:31:23.873Z,10.04
2022-12-15T15:31:40.821Z,10.04
2022-12-15T15:31:47.862Z,10.04
2022-12-15T15:31:57.877Z,10.04
2022-12-15T15:32:08.832Z,10.03
2022-12-15T15:32:20.834Z,10.03
2022-12-15T15:32:32.832Z,10.03
2022-12-15T15:32:44.749Z,10.03
2022-12-15T15:32:55.814Z,10.03
2022-12-15T15:33:07.812Z,10.02
2022-12-15T15:33:19.820Z,10.02
2022-12-15T15:33:31.826Z,10.03
2022-12-15T15:33:43.831Z,10.04
2022-12-15T15:33:54.811Z,10.02
2022-12-15T15:34:05.805Z,10.04
2022-12-15T15:34:16.864Z,10.02
2022-12-15T15:34:28.883Z,10.02
2022-12-15T15:34:39.830Z,10.02
2022-12-15T15:34:51.840Z,10.04
2022-12-15T15:35:03.859Z,10.04
2022-12-15T15:35:15.779Z,10.03
2022-12-15T15:35:26.842Z,10.03
2022-12-15T15:35:37.780Z,10.02
2022-12-15T15:35:48.845Z,10.03
2022-12-15T15:36:01.697Z,10.05
2022-12-15T15:36:12.850Z,10.03
2022-12-15T15:36:24.858Z,10.04
2022-12-15T15:36:36.783Z,10.04
2022-12-15T15:36:47.839Z,10.04
2022-12-15T15:36:59.836Z,10.04
2022-12-15T15:37:16.502Z,10.04
2022-12-15T15:37:23.813Z,10.03
2022-12-15T15:37:33.805Z,10.03
2022-12-15T15:37:45.813Z,10.04
2022-12-15T15:37:57.797Z,10.04
2022-12-15T15:38:09.798Z,10.04
2022-12-15T15:38:20.782Z,10.05
2022-12-15T15:38:33.323Z,10.04
2022-12-15T15:38:43.857Z,10.04
2022-12-15T15:38:55.782Z,10.03
2022-12-15T15:39:06.842Z,10.03
2022-12-15T15:39:17.805Z,10.02
2022-12-15T15:39:29.812Z,10.04
2022-12-15T15:39:40.799Z,10.04
2022-12-15T15:39:51.813Z,10.04
2022-12-15T15:40:03.851Z,10.03
2022-12-15T15:40:15.884Z,10.04
2022-12-15T15:40:27.795Z,10.05
2022-12-15T15:40:39.802Z,10.05
2022-12-15T15:40:51.808Z,10.04
2022-12-15T15:41:03.820Z,10.03
2022-12-15T15:41:14.792Z,10.02
2022-12-15T15:41:25.835Z,10.02
2022-12-15T15:41:37.846Z,10.03
2022-12-15T15:41:49.851Z,10.03
2022-12-15T15:42:01.858Z,10.02
2022-12-15T15:42:13.870Z,10.02
2022-12-15T15:42:32.267Z,10.02
2022-12-15T15:42:37.788Z,10.03
2022-12-15T15:42:47.873Z,10.01
2022-12-15T15:42:59.779Z,10.01
2022-12-15T15:43:10.834Z,10.01
2022-12-15T15:43:22.813Z,10.01
2022-12-15T15:43:33.787Z,10.02
2022-12-15T15:43:45.800Z,10.02
2022-12-15T15:43:57.806Z,10.03
2022-12-15T15:44:09.818Z,10.02
2022-12-15T15:44:21.822Z,10.02
2022-12-15T15:44:33.863Z,10.01
2022-12-15T15:44:44.830Z,10.01
2022-12-15T15:44:55.822Z,10.01
2022-12-15T15:45:06.772Z,10.01
2022-12-15T15:45:17.830Z,10.02
2022-12-15T15:45:29.827Z,10.01
2022-12-15T15:45:41.906Z,10.01
2022-12-15T15:45:53.839Z,10.01
2022-12-15T15:46:06.035Z,10.01
2022-12-15T15:46:17.829Z,10.02
2022-12-15T15:46:28.813Z,10.01
2022-12-15T15:46:39.843Z,10.01
2022-12-15T15:46:50.783Z,10.00
2022-12-15T15:47:01.835Z,10.01
2022-12-15T15:47:13.838Z,10.01
2022-12-15T15:47:25.850Z,10.01
2022-12-15T15:47:37.842Z,10.01
2022-12-15T15:47:49.877Z,10.00
2022-12-15T15:48:01.797Z,10.01
2022-12-15T15:48:12.815Z,10.00
2022-12-15T15:48:23.870Z,10.02
2022-12-15T15:48:36.349Z,10.02
2022-12-15T15:48:46.797Z,10.00
2022-12-15T15:48:57.851Z,10.02
2022-12-15T15:49:09.860Z,10.01
2022-12-15T15:49:21.867Z,10.01
2022-12-15T15:49:37.887Z,10.02
2022-12-15T15:49:46.833Z,10.02
2022-12-15T15:49:56.832Z,10.02
2022-12-15T15:50:07.886Z,10.01
2022-12-15T15:50:19.777Z,10.02
2022-12-15T15:50:30.831Z,10.01
2022-12-15T15:50:42.834Z,10.03
2022-12-15T15:50:54.848Z,10.02
2022-12-15T15:51:06.835Z,10.02
2022-12-15T15:51:18.868Z,10.03
2022-12-15T15:51:30.874Z,10.02
2022-12-15T15:51:42.819Z,10.02
2022-12-15T15:51:54.814Z,10.00
2022-12-15T15:52:05.779Z,10.01
2022-12-15T15:52:16.817Z,10.02
2022-12-15T15:52:28.813Z,10.03
2022-12-15T15:52:40.829Z,10.03
2022-12-15T15:52:52.830Z,10.03
2022-12-15T15:53:04.833Z,10.01
2022-12-15T15:53:16.842Z,10.03
2022-12-15T15:53:28.837Z,10.03
2022-12-15T15:53:40.850Z,10.03
2022-12-15T15:53:52.849Z,10.02
2022-12-15T15:54:04.854Z,10.02
2022-12-15T15:54:16.862Z,10.02
2022-12-15T15:54:28.840Z,10.02
2022-12-15T15:54:40.866Z,10.03
2022-12-15T15:54:52.872Z,10.04
2022-12-15T15:55:04.787Z,10.03
2022-12-15T15:55:15.855Z,10.03
2022-12-15T15:55:27.853Z,10.01
2022-12-15T15:55:40.157Z,10.03
2022-12-15T15:55:50.814Z,10.01
2022-12-15T15:56:02.823Z,10.02
2022-12-15T15:56:14.838Z,10.02
2022-12-15T15:56:26.840Z,10.02
2022-12-15T15:56:38.857Z,10.02
2022-12-15T15:56:50.868Z,10.02
2022-12-15T15:57:02.870Z,10.03
2022-12-15T15:57:14.798Z,10.03
2022-12-15T15:57:26.807Z,10.03
2022-12-15T15:57:37.875Z,10.03
2022-12-15T15:57:49.793Z,10.03
2022-12-15T15:58:00.837Z,10.02
2022-12-15T15:58:12.835Z,10.02
2022-12-15T15:58:24.845Z,10.03
2022-12-15T15:58:36.859Z,10.02
2022-12-15T15:58:48.857Z,10.02
2022-12-15T15:59:00.870Z,10.02
2022-12-15T15:59:12.872Z,10.02
2022-12-15T15:59:24.777Z,10.03
2022-12-15T15:59:35.822Z,10.03
2022-12-15T15:59:47.817Z,10.03
2022-12-15T15:59:59.835Z,10.04
2022-12-15T16:00:11.837Z,10.02
2022-12-15T16:00:23.851Z,10.01
2022-12-15T16:00:35.859Z,10.02
2022-12-15T16:00:46.818Z,10.03
2022-12-15T16:00:58.875Z,10.02
2022-12-15T16:01:13.345Z,10.01
2022-12-15T16:01:21.926Z,10.01
2022-12-15T16:01:33.984Z,10.03
2022-12-15T16:01:44.866Z,10.03
2022-12-15T16:01:56.133Z,10.03
2022-12-15T16:02:08.050Z,10.03
2022-12-15T16:02:18.978Z,10.03
2022-12-15T16:02:30.997Z,10.02
2022-12-15T16:02:42.005Z,10.02
2022-12-15T16:02:53.066Z,10.02
2022-12-15T16:03:04.091Z,10.02
2022-12-15T16:03:16.105Z,10.03
2022-12-15T16:03:27.098Z,10.03
2022-12-15T16:03:38.825Z,10.03
2022-12-15T16:03:49.829Z,10.02
2022-12-15T16:04:00.858Z,10.03
2022-12-15T16:04:11.894Z,10.03
2022-12-15T16:04:23.854Z,10.02
2022-12-15T16:04:35.831Z,10.02
2022-12-15T16:04:47.839Z,10.01
2022-12-15T16:04:59.841Z,10.02
2022-12-15T16:05:11.853Z,10.01
2022-12-15T16:05:23.859Z,10.02
2022-12-15T16:05:35.870Z,10.02
2022-12-15T16:05:47.878Z,10.04
2022-12-15T16:05:59.788Z,10.03
2022-12-15T16:06:10.836Z,10.04
2022-12-15T16:06:22.832Z,10.03
2022-12-15T16:06:34.830Z,10.03
2022-12-15T16:06:47.843Z,10.03
2022-12-15T16:06:57.834Z,10.03
2022-12-15T16:07:09.831Z,10.03
2022-12-15T16:07:21.870Z,10.03
2022-12-15T16:07:33.831Z,10.02
2022-12-15T16:07:44.877Z,10.03
2022-12-15T16:07:56.781Z,10.03
2022-12-15T16:08:07.853Z,10.04
2022-12-15T16:08:19.808Z,10.02
2022-12-15T16:08:31.325Z,10.04
2022-12-15T16:08:41.831Z,10.03
2022-12-15T16:08:53.897Z,10.02
2022-12-15T16:09:05.857Z,10.03
2022-12-15T16:09:17.855Z,10.03
2022-12-15T16:09:29.870Z,10.02
2022-12-15T16:09:41.870Z,10.03
2022-12-15T16:09:53.882Z,10.03
2022-12-15T16:10:04.831Z,10.03
2022-12-15T16:10:16.835Z,10.02
2022-12-15T16:10:28.829Z,10.02
2022-12-15T16:10:40.813Z,10.03
2022-12-15T16:10:52.832Z,10.02
2022-12-15T16:11:04.856Z,10.02
2022-12-15T16:11:16.839Z,10.03
2022-12-15T16:11:28.860Z,10.02
2022-12-15T16:11:40.869Z,10.03
2022-12-15T16:11:52.857Z,10.02
2022-12-15T16:12:04.768Z,10.02
2022-12-15T16:12:15.855Z,10.01
2022-12-15T16:12:27.845Z,10.02
2022-12-15T16:12:39.781Z,10.02
2022-12-15T16:12:50.827Z,10.02
2022-12-15T16:13:02.845Z,10.02
2022-12-15T16:13:13.801Z,10.01
2022-12-15T16:13:26.595Z,10.01
2022-12-15T16:13:36.856Z,10.01
2022-12-15T16:13:48.779Z,10.02
2022-12-15T16:13:59.827Z,10.01
2022-12-15T16:14:11.836Z,10.01
2022-12-15T16:14:23.851Z,10.01
2022-12-15T16:14:35.838Z,10.02
2022-12-15T16:14:47.848Z,10.01
2022-12-15T16:14:59.778Z,10.02
2022-12-15T16:15:10.839Z,10.00
2022-12-15T16:15:21.827Z,10.01
2022-12-15T16:15:33.008Z,10.01
2022-12-15T16:15:44.899Z,10.02
2022-12-15T16:15:56.927Z,10.02
2022-12-15T16:16:07.902Z,10.01
2022-12-15T16:16:19.878Z,10.01
2022-12-15T16:16:30.863Z,10.01
2022-12-15T16:16:41.858Z,10.01
2022-12-15T16:16:53.864Z,10.01